createdAt,value
2023-06-13T00:00:49.028Z,128.44
2023-06-13T00:01:49.070Z,130.26
2023-06-13T00:02:49.170Z,129.46
2023-06-13T00:03:49.339Z,130.50
2023-06-13T00:04:49.372Z,130.13
2023-06-13T00:05:49.316Z,129.39
2023-06-13T00:06:49.406Z,129.38
2023-06-13T00:07:49.465Z,129.85
2023-06-13T00:08:49.498Z,129.72
2023-06-13T00:09:49.565Z,128.69
2023-06-13T00:10:49.711Z,128.19
2023-06-13T00:11:49.677Z,128.82
2023-06-13T00:12:49.814Z,128.80
2023-06-13T00:13:49.809Z,129.12
2023-06-13T00:14:50.854Z,129.98
2023-06-13T00:15:49.926Z,128.37
2023-06-13T00:16:50.046Z,128.46
2023-06-13T00:17:50.113Z,127.57
2023-06-13T00:18:50.207Z,128.84
2023-06-13T00:19:50.184Z,128.08
2023-06-13T00:20:50.256Z,127.98
2023-06-13T00:21:50.312Z,128.23
2023-06-13T00:22:50.373Z,125.46
2023-06-13T00:23:50.487Z,128.28
2023-06-13T00:24:50.549Z,127.30
2023-06-13T00:25:50.563Z,126.62
2023-06-13T00:26:50.608Z,127.64
2023-06-13T00:27:50.657Z,124.93
2023-06-13T00:28:50.704Z,127.29
2023-06-13T00:29:50.767Z,126.22
2023-06-13T00:30:50.869Z,126.69
2023-06-13T00:31:50.883Z,126.96
2023-06-13T00:32:51.001Z,124.39
2023-06-13T00:33:51.004Z,126.32
2023-06-13T00:34:51.072Z,124.77
2023-06-13T00:35:51.138Z,126.25
2023-06-13T00:36:51.184Z,125.59
2023-06-13T00:37:51.246Z,124.72
2023-06-13T00:38:51.325Z,124.74
2023-06-13T00:39:51.377Z,125.35
2023-06-13T00:40:51.433Z,125.00
2023-06-13T00:41:51.491Z,125.07
2023-06-13T00:42:51.603Z,124.95
2023-06-13T00:43:51.612Z,124.18
2023-06-13T00:44:51.639Z,123.30
2023-06-13T00:45:51.684Z,124.53
2023-06-13T00:46:51.757Z,124.00
2023-06-13T00:47:51.816Z,123.02
2023-06-13T00:48:51.938Z,123.38
2023-06-13T00:49:51.916Z,122.58
2023-06-13T00:50:52.055Z,122.66
2023-06-13T00:51:52.043Z,123.44
2023-06-13T00:52:52.104Z,121.31
2023-06-13T00:53:52.160Z,122.22
2023-06-13T00:54:52.206Z,123.52
2023-06-13T00:55:52.256Z,122.35
2023-06-13T00:56:52.314Z,122.00
2023-06-13T00:57:52.361Z,121.95
2023-06-13T00:58:52.432Z,122.73
2023-06-13T00:59:52.495Z,120.40
2023-06-13T01:00:52.523Z,121.47
2023-06-13T01:01:52.627Z,122.45
2023-06-13T01:02:52.692Z,121.45
2023-06-13T01:03:52.644Z,120.97
2023-06-13T01:04:52.820Z,121.06
2023-06-13T01:05:52.741Z,121.41
2023-06-13T01:06:52.820Z,120.70
2023-06-13T01:07:52.856Z,121.43
2023-06-13T01:08:52.907Z,120.04
2023-06-13T01:09:52.979Z,121.62
2023-06-13T01:10:53.027Z,119.56
2023-06-13T01:11:53.081Z,120.72
2023-06-13T01:12:53.135Z,120.28
2023-06-13T01:13:53.203Z,118.71
2023-06-13T01:14:53.244Z,120.13
2023-06-13T01:15:53.286Z,119.55
2023-06-13T01:16:53.366Z,120.15
2023-06-13T01:17:53.459Z,119.34
2023-06-13T01:18:53.431Z,119.42
2023-06-13T01:19:53.484Z,117.92
2023-06-13T01:20:53.555Z,119.91
2023-06-13T01:21:53.620Z,119.03
2023-06-13T01:22:53.807Z,118.56
2023-06-13T01:23:53.814Z,118.91
2023-06-13T01:24:53.815Z,118.92
2023-06-13T01:25:53.993Z,118.93
2023-06-13T01:26:53.947Z,117.91
2023-06-13T01:27:53.982Z,118.29
2023-06-13T01:28:54.026Z,117.13
2023-06-13T01:29:54.079Z,117.50
2023-06-13T01:30:54.129Z,117.51
2023-06-13T01:31:54.131Z,117.51
2023-06-13T01:32:54.274Z,117.30
2023-06-13T01:33:54.174Z,116.65
2023-06-13T01:34:54.215Z,117.39
2023-06-13T01:35:54.256Z,116.71
2023-06-13T01:36:54.316Z,116.29
2023-06-13T01:37:54.357Z,116.56
2023-06-13T01:38:54.394Z,116.46
2023-06-13T01:39:54.412Z,116.54
2023-06-13T01:40:54.429Z,115.30
2023-06-13T01:41:54.462Z,114.03
2023-06-13T01:42:54.461Z,115.66
2023-06-13T01:43:54.460Z,115.02
2023-06-13T01:44:54.473Z,114.82
2023-06-13T01:45:54.479Z,115.19
2023-06-13T01:46:54.469Z,116.20
2023-06-13T01:47:54.593Z,115.86
2023-06-13T01:48:54.560Z,114.75
2023-06-13T01:49:54.670Z,115.57
2023-06-13T01:50:54.612Z,115.60
2023-06-13T01:51:54.629Z,114.72
2023-06-13T01:52:54.653Z,114.18
2023-06-13T01:53:54.669Z,115.30
2023-06-13T01:54:54.698Z,114.35
2023-06-13T01:55:55.331Z,113.36
2023-06-13T01:56:54.710Z,113.77
2023-06-13T01:57:54.722Z,113.89
2023-06-13T01:58:54.749Z,114.46
2023-06-13T01:59:54.815Z,113.98
2023-06-13T02:00:54.839Z,112.13
2023-06-13T02:01:54.916Z,114.84
2023-06-13T02:02:55.039Z,113.52
2023-06-13T02:03:55.013Z,112.09
2023-06-13T02:04:54.872Z,113.73
2023-06-13T02:05:54.876Z,112.73
2023-06-13T02:06:54.882Z,113.09
2023-06-13T02:07:54.908Z,112.31
2023-06-13T02:08:54.913Z,111.20
2023-06-13T02:09:54.928Z,110.31
2023-06-13T02:10:54.945Z,111.41
2023-06-13T02:11:54.936Z,111.25
2023-06-13T02:12:54.959Z,112.43
2023-06-13T02:13:54.980Z,111.73
2023-06-13T02:14:55.050Z,111.99
2023-06-13T02:15:55.025Z,111.15
2023-06-13T02:16:55.224Z,111.21
2023-06-13T02:17:55.119Z,111.15
2023-06-13T02:18:55.116Z,112.38
2023-06-13T02:19:55.110Z,110.49
2023-06-13T02:20:55.832Z,111.69
2023-06-13T02:21:55.108Z,111.18
2023-06-13T02:22:55.130Z,110.76
2023-06-13T02:23:55.178Z,111.08
2023-06-13T02:24:55.165Z,110.15
2023-06-13T02:25:55.182Z,110.66
2023-06-13T02:26:55.192Z,110.00
2023-06-13T02:27:55.206Z,109.27
2023-06-13T02:28:55.214Z,109.95
2023-06-13T02:29:55.332Z,108.11
2023-06-13T02:30:55.273Z,109.43
2023-06-13T02:31:55.349Z,109.86
2023-06-13T02:32:55.345Z,110.34
2023-06-13T02:33:55.273Z,109.57
2023-06-13T02:34:55.300Z,108.67
2023-06-13T02:35:55.301Z,110.77
2023-06-13T02:36:55.312Z,108.88
2023-06-13T02:37:55.317Z,108.53
2023-06-13T02:38:55.339Z,108.32
2023-06-13T02:39:55.350Z,108.06
2023-06-13T02:40:55.343Z,109.28
2023-06-13T02:41:55.358Z,107.75
2023-06-13T02:42:55.372Z,108.52
2023-06-13T02:43:55.382Z,106.85
2023-06-13T02:44:55.406Z,107.47
2023-06-13T02:45:55.417Z,107.76
2023-06-13T02:46:55.445Z,107.38
2023-06-13T02:47:55.537Z,106.62
2023-06-13T02:48:55.577Z,107.12
2023-06-13T02:49:55.531Z,108.13
2023-06-13T02:50:55.509Z,105.72
2023-06-13T02:51:56.334Z,107.81
2023-06-13T02:52:55.575Z,106.08
2023-06-13T02:53:55.560Z,106.56
2023-06-13T02:54:55.566Z,106.34
2023-06-13T02:55:55.598Z,107.77
2023-06-13T02:56:55.594Z,106.08
2023-06-13T02:57:55.610Z,105.05
2023-06-13T02:58:55.622Z,107.22
2023-06-13T02:59:55.723Z,104.58
2023-06-13T03:00:55.674Z,106.36
2023-06-13T03:01:55.670Z,106.10
2023-06-13T03:02:55.761Z,104.89
2023-06-13T03:03:55.751Z,105.62
2023-06-13T03:04:55.714Z,103.75
2023-06-13T03:05:55.714Z,105.06
2023-06-13T03:06:55.733Z,104.54
2023-06-13T03:07:55.746Z,104.18
2023-06-13T03:08:55.752Z,105.15
2023-06-13T03:09:55.821Z,103.91
2023-06-13T03:10:55.749Z,103.28
2023-06-13T03:11:55.776Z,103.82
2023-06-13T03:12:55.776Z,103.90
2023-06-13T03:13:55.790Z,104.00
2023-06-13T03:14:55.805Z,103.86
2023-06-13T03:15:55.794Z,101.51
2023-06-13T03:16:55.824Z,104.14
2023-06-13T03:17:55.948Z,103.67
2023-06-13T03:18:55.832Z,102.65
2023-06-13T03:20:03.927Z,104.40
2023-06-13T03:20:56.876Z,104.59
2023-06-13T03:21:55.851Z,104.67
2023-06-13T03:22:55.941Z,104.57
2023-06-13T03:23:55.866Z,104.47
2023-06-13T03:24:55.833Z,104.47
2023-06-13T03:25:55.863Z,104.08
2023-06-13T03:26:55.862Z,103.92
2023-06-13T03:27:55.831Z,103.08
2023-06-13T03:28:55.829Z,102.76
2023-06-13T03:29:55.822Z,102.45
2023-06-13T03:30:55.911Z,101.60
2023-06-13T03:31:55.858Z,101.08
2023-06-13T03:32:55.972Z,102.28
2023-06-13T03:33:55.929Z,101.37
2023-06-13T03:34:55.947Z,103.22
2023-06-13T03:35:58.931Z,101.95
2023-06-13T03:36:56.045Z,104.18
2023-06-13T03:37:56.051Z,102.93
2023-06-13T03:38:55.987Z,103.23
2023-06-13T03:39:55.985Z,102.40
2023-06-13T03:40:55.973Z,101.34
2023-06-13T03:41:56.863Z,101.76
2023-06-13T03:42:55.970Z,101.83
2023-06-13T03:43:56.044Z,100.84
2023-06-13T03:44:55.978Z,101.32
2023-06-13T03:45:55.995Z,100.93
2023-06-13T03:46:55.971Z,100.36
2023-06-13T03:47:56.080Z,101.53
2023-06-13T03:48:56.203Z,101.46
2023-06-13T03:49:55.961Z,100.83
2023-06-13T03:50:55.955Z,100.26
2023-06-13T03:51:56.040Z,101.62
2023-06-13T03:52:55.958Z,99.98
2023-06-13T03:53:56.861Z,99.67
2023-06-13T03:54:55.949Z,100.23
2023-06-13T03:55:55.939Z,99.76
2023-06-13T03:56:55.927Z,99.97
2023-06-13T03:57:56.860Z,98.75
2023-06-13T03:58:55.931Z,98.71
2023-06-13T03:59:55.930Z,97.73
2023-06-13T04:00:56.373Z,98.79
2023-06-13T04:01:55.935Z,99.89
2023-06-13T04:02:55.950Z,98.90
2023-06-13T04:03:55.978Z,97.76
2023-06-13T04:04:55.907Z,98.67
2023-06-13T04:05:56.000Z,98.60
2023-06-13T04:06:55.903Z,98.65
2023-06-13T04:07:55.933Z,98.59
2023-06-13T04:08:56.874Z,97.60
2023-06-13T04:09:55.912Z,98.20
2023-06-13T04:10:55.911Z,97.71
2023-06-13T04:11:55.908Z,97.91
2023-06-13T04:12:55.926Z,97.75
2023-06-13T04:13:55.922Z,95.81
2023-06-13T04:14:55.931Z,96.67
2023-06-13T04:15:55.928Z,96.13
2023-06-13T04:16:55.968Z,97.09
2023-06-13T04:17:55.986Z,95.76
2023-06-13T04:18:55.993Z,95.82
2023-06-13T04:19:55.933Z,96.82
2023-06-13T04:20:55.940Z,93.68
2023-06-13T04:21:55.934Z,96.45
2023-06-13T04:22:55.939Z,95.90
2023-06-13T04:23:56.088Z,95.87
2023-06-13T04:24:55.945Z,96.18
2023-06-13T04:25:56.886Z,96.19
2023-06-13T04:26:55.947Z,94.96
2023-06-13T04:27:55.953Z,95.51
2023-06-13T04:28:55.947Z,95.96
2023-06-13T04:29:55.962Z,95.71
2023-06-13T04:30:55.974Z,96.09
2023-06-13T04:31:56.048Z,95.25
2023-06-13T04:32:56.140Z,95.18
2023-06-13T04:33:56.109Z,95.52
2023-06-13T04:34:56.127Z,95.56
2023-06-13T04:35:56.159Z,93.39
2023-06-13T04:36:56.190Z,93.97
2023-06-13T04:37:56.229Z,92.56
2023-06-13T04:38:56.244Z,93.35
2023-06-13T04:39:56.270Z,93.02
2023-06-13T04:40:56.316Z,92.68
2023-06-13T04:41:56.494Z,93.38
2023-06-13T04:42:56.378Z,92.54
2023-06-13T04:43:56.483Z,92.82
2023-06-13T04:44:56.464Z,88.92
2023-06-13T04:45:56.589Z,91.96
2023-06-13T04:46:56.533Z,91.62
2023-06-13T04:47:58.361Z,90.31
2023-06-13T04:48:56.682Z,90.79
2023-06-13T04:49:56.643Z,89.15
2023-06-13T04:50:56.669Z,88.78
2023-06-13T04:51:56.727Z,89.06
2023-06-13T04:52:56.760Z,90.43
2023-06-13T04:53:56.786Z,89.47
2023-06-13T04:54:56.825Z,90.71
2023-06-13T04:55:56.855Z,88.98
2023-06-13T04:56:56.880Z,90.15
2023-06-13T04:57:56.896Z,89.47
2023-06-13T04:58:57.143Z,88.60
2023-06-13T04:59:56.961Z,89.83
2023-06-13T05:00:56.995Z,88.50
2023-06-13T05:01:57.002Z,88.87
2023-06-13T05:02:57.296Z,89.09
2023-06-13T05:03:59.062Z,87.97
2023-06-13T05:04:57.131Z,88.81
2023-06-13T05:05:57.094Z,89.77
2023-06-13T05:06:57.104Z,88.55
2023-06-13T05:07:57.219Z,87.38
2023-06-13T05:08:57.101Z,87.94
2023-06-13T05:09:57.107Z,87.34
2023-06-13T05:10:57.101Z,87.74
2023-06-13T05:11:57.122Z,87.10
2023-06-13T05:12:57.106Z,87.28
2023-06-13T05:13:57.122Z,87.18
2023-06-13T05:14:57.121Z,85.11
2023-06-13T05:15:57.132Z,84.73
2023-06-13T05:16:57.113Z,85.94
2023-06-13T05:17:59.581Z,84.69
2023-06-13T05:18:57.115Z,85.05
2023-06-13T05:19:57.124Z,85.69
2023-06-13T05:20:57.110Z,87.06
2023-06-13T05:21:57.137Z,88.83
2023-06-13T05:22:57.116Z,92.19
2023-06-13T05:23:57.160Z,93.06
2023-06-13T05:24:57.124Z,96.35
2023-06-13T05:25:57.125Z,103.23
2023-06-13T05:26:57.102Z,105.86
2023-06-13T05:27:57.169Z,117.35
2023-06-13T05:28:57.092Z,122.22
2023-06-13T05:29:57.123Z,126.91
2023-06-13T05:30:57.125Z,128.16
2023-06-13T05:31:57.099Z,130.82
2023-06-13T05:32:57.132Z,140.90
2023-06-13T05:33:57.076Z,149.81
2023-06-13T05:34:57.079Z,166.78
2023-06-13T05:35:58.524Z,171.78
2023-06-13T05:36:57.906Z,178.27
2023-06-13T05:37:57.904Z,185.10
2023-06-13T05:38:57.045Z,186.99
2023-06-13T05:39:57.038Z,191.22
2023-06-13T05:40:57.035Z,199.58
2023-06-13T05:41:57.018Z,205.68
2023-06-13T05:42:57.014Z,212.74
2023-06-13T05:43:57.010Z,216.65
2023-06-13T05:44:56.998Z,220.08
2023-06-13T05:45:56.981Z,226.77
2023-06-13T05:46:56.972Z,231.71
2023-06-13T05:47:57.834Z,233.52
2023-06-13T05:48:56.978Z,239.33
2023-06-13T05:49:56.966Z,250.82
2023-06-13T05:50:56.993Z,249.61
2023-06-13T05:51:57.000Z,249.09
2023-06-13T05:52:57.007Z,248.29
2023-06-13T05:53:57.029Z,249.37
2023-06-13T05:54:57.042Z,247.68
2023-06-13T05:55:57.053Z,249.10
2023-06-13T05:56:57.092Z,247.06
2023-06-13T05:57:57.080Z,249.54
2023-06-13T05:58:57.099Z,247.47
2023-06-13T05:59:57.094Z,247.00
2023-06-13T06:00:57.903Z,246.51
2023-06-13T06:01:57.207Z,246.44
2023-06-13T06:02:57.166Z,249.15
2023-06-13T06:03:57.170Z,250.00
2023-06-13T06:04:57.128Z,248.25
2023-06-13T06:05:57.122Z,250.00
2023-06-13T06:06:57.127Z,247.65
2023-06-13T06:07:57.156Z,248.58
2023-06-13T06:08:57.140Z,250.00
2023-06-13T06:09:57.147Z,250.00
2023-06-13T06:10:57.198Z,249.84
2023-06-13T06:11:57.117Z,248.87
2023-06-13T06:12:57.106Z,248.12
2023-06-13T06:13:57.099Z,249.92
2023-06-13T06:14:57.111Z,250.00
2023-06-13T06:15:57.849Z,250.00
2023-06-13T06:16:57.097Z,249.29
2023-06-13T06:17:57.170Z,249.43
2023-06-13T06:18:57.319Z,249.20
2023-06-13T06:19:57.161Z,250.00
2023-06-13T06:20:57.068Z,248.55
2023-06-13T06:21:57.056Z,248.57
2023-06-13T06:22:57.046Z,248.10
2023-06-13T06:23:57.066Z,249.33
2023-06-13T06:24:57.047Z,249.20
2023-06-13T06:25:57.025Z,247.80
2023-06-13T06:26:57.067Z,237.93
2023-06-13T06:27:57.013Z,181.02
2023-06-13T06:28:57.029Z,139.64
2023-06-13T06:29:57.046Z,109.23
2023-06-13T06:30:57.155Z,86.05
2023-06-13T06:31:57.136Z,61.78
2023-06-13T06:32:57.222Z,41.60
2023-06-13T06:33:57.213Z,22.98
2023-06-13T06:34:57.273Z,21.49
2023-06-13T06:35:57.334Z,20.38
2023-06-13T06:36:57.379Z,22.73
2023-06-13T06:37:57.450Z,22.96
2023-06-13T06:38:57.503Z,25.00
2023-06-13T06:39:57.575Z,25.00
2023-06-13T06:40:57.671Z,25.00
2023-06-13T06:41:57.713Z,25.00
2023-06-13T06:42:57.782Z,24.71
2023-06-13T06:43:57.703Z,25.00
2023-06-13T06:44:57.822Z,25.00
2023-06-13T06:45:57.793Z,25.00
2023-06-13T06:46:58.520Z,24.93
2023-06-13T06:47:57.897Z,25.12
2023-06-13T06:48:57.753Z,25.17
2023-06-13T06:49:57.751Z,25.00
2023-06-13T06:50:57.776Z,25.10
2023-06-13T06:51:57.751Z,25.00
2023-06-13T06:52:57.758Z,25.22
2023-06-13T06:53:57.758Z,25.37
2023-06-13T06:54:57.773Z,25.00
2023-06-13T06:55:57.774Z,25.00
2023-06-13T06:56:57.769Z,25.02
2023-06-13T06:57:57.791Z,25.00
2023-06-13T06:58:57.793Z,25.00
2023-06-13T06:59:57.791Z,25.00
2023-06-13T07:00:57.849Z,25.00
2023-06-13T07:01:58.461Z,25.11
2023-06-13T07:02:57.884Z,25.12
2023-06-13T07:03:57.849Z,25.16
2023-06-13T07:04:57.842Z,24.99
2023-06-13T07:05:57.845Z,25.43
2023-06-13T07:06:57.858Z,25.08
2023-06-13T07:07:57.892Z,25.12
2023-06-13T07:08:57.894Z,25.17
2023-06-13T07:09:57.901Z,25.73
2023-06-13T07:10:57.906Z,25.75
2023-06-13T07:11:57.946Z,25.25
2023-06-13T07:12:57.946Z,25.00
2023-06-13T07:13:57.954Z,25.23
2023-06-13T07:14:57.975Z,25.08
2023-06-13T07:15:58.981Z,25.32
2023-06-13T07:16:57.988Z,25.48
2023-06-13T07:17:58.093Z,25.00
2023-06-13T07:18:58.007Z,25.06
2023-06-13T07:19:58.018Z,25.00
2023-06-13T07:20:58.033Z,25.64
2023-06-13T07:21:58.023Z,29.54
2023-06-13T07:22:58.031Z,33.68
2023-06-13T07:24:07.573Z,40.06
2023-06-13T07:24:59.155Z,40.32
2023-06-13T07:25:58.028Z,41.88
2023-06-13T07:26:58.025Z,45.98
2023-06-13T07:27:58.019Z,54.09
2023-06-13T07:28:58.015Z,65.48
2023-06-13T07:29:58.012Z,71.82
2023-06-13T07:30:57.993Z,75.22
2023-06-13T07:31:58.029Z,79.12
2023-06-13T07:33:00.106Z,84.69
2023-06-13T07:33:58.038Z,88.49
2023-06-13T07:35:04.742Z,91.43
2023-06-13T07:35:58.949Z,91.66
2023-06-13T07:36:57.942Z,92.66
2023-06-13T07:37:57.933Z,95.27
2023-06-13T07:39:00.593Z,99.97
2023-06-13T07:39:57.969Z,110.61
2023-06-13T07:40:57.899Z,114.80
2023-06-13T07:41:57.896Z,118.02
2023-06-13T07:42:57.885Z,120.24
2023-06-13T07:43:57.906Z,122.82
2023-06-13T07:44:57.919Z,127.04
2023-06-13T07:45:57.853Z,129.82
2023-06-13T07:46:57.851Z,131.87
2023-06-13T07:47:57.838Z,135.99
2023-06-13T07:48:57.900Z,138.82
2023-06-13T07:49:57.817Z,140.68
2023-06-13T07:50:57.777Z,144.27
2023-06-13T07:51:57.769Z,145.92
2023-06-13T07:52:57.776Z,149.44
2023-06-13T07:53:57.743Z,152.32
2023-06-13T07:54:57.739Z,157.17
2023-06-13T07:55:57.711Z,159.01
2023-06-13T07:56:57.705Z,161.63
2023-06-13T07:58:00.175Z,165.57
2023-06-13T07:58:57.659Z,165.69
2023-06-13T07:59:57.654Z,166.53
2023-06-13T08:00:57.645Z,168.34
2023-06-13T08:01:57.649Z,172.33
2023-06-13T08:02:57.752Z,177.11
2023-06-13T08:03:57.766Z,180.15
2023-06-13T08:04:57.658Z,181.49
2023-06-13T08:05:57.528Z,183.81
2023-06-13T08:06:57.498Z,185.30
2023-06-13T08:07:57.469Z,187.54
2023-06-13T08:08:57.457Z,189.51
2023-06-13T08:09:57.442Z,191.52
2023-06-13T08:10:57.403Z,193.74
2023-06-13T08:11:57.467Z,196.90
2023-06-13T08:12:57.373Z,197.21
2023-06-13T08:13:57.385Z,198.22
2023-06-13T08:14:57.330Z,199.48
2023-06-13T08:15:57.467Z,197.85
2023-06-13T08:16:57.282Z,197.72
2023-06-13T08:17:57.283Z,192.94
2023-06-13T08:18:57.991Z,188.07
2023-06-13T08:19:57.486Z,181.62
2023-06-13T08:20:57.202Z,179.67
2023-06-13T08:21:57.188Z,177.64
2023-06-13T08:22:57.159Z,175.59
2023-06-13T08:23:57.175Z,173.37
2023-06-13T08:24:57.470Z,171.42
2023-06-13T08:25:57.250Z,171.20
2023-06-13T08:26:57.273Z,169.69
2023-06-13T08:27:57.058Z,166.37
2023-06-13T08:28:57.042Z,162.64
2023-06-13T08:29:57.524Z,162.99
2023-06-13T08:31:10.427Z,163.48
2023-06-13T08:31:58.079Z,163.63
2023-06-13T08:32:57.028Z,164.40
2023-06-13T08:34:08.842Z,166.15
2023-06-13T08:34:57.935Z,163.87
2023-06-13T08:35:56.916Z,165.49
2023-06-13T08:36:56.938Z,168.89
2023-06-13T08:37:56.866Z,174.39
2023-06-13T08:38:56.875Z,183.26
2023-06-13T08:39:56.822Z,185.81
2023-06-13T08:40:56.843Z,187.30
2023-06-13T08:41:56.773Z,189.82
2023-06-13T08:42:56.769Z,191.94
2023-06-13T08:43:56.812Z,193.89
2023-06-13T08:44:56.853Z,196.22
2023-06-13T08:45:56.864Z,198.35
2023-06-13T08:46:56.964Z,199.59
2023-06-13T08:47:57.084Z,202.79
2023-06-13T08:48:56.976Z,204.17
2023-06-13T08:49:57.014Z,206.34
2023-06-13T08:50:57.047Z,208.92
2023-06-13T08:51:57.160Z,212.51
2023-06-13T08:52:57.138Z,216.39
2023-06-13T08:53:57.285Z,217.39
2023-06-13T08:55:34.495Z,218.80
2023-06-13T08:56:04.487Z,218.92
2023-06-13T08:56:58.332Z,219.04
2023-06-13T08:57:57.118Z,220.18
2023-06-13T08:58:57.979Z,222.39
2023-06-13T08:59:57.054Z,226.19
2023-06-13T09:00:57.078Z,231.85
2023-06-13T09:01:57.002Z,235.09
2023-06-13T09:02:57.147Z,236.33
2023-06-13T09:03:57.001Z,239.63
2023-06-13T09:04:59.172Z,240.99
2023-06-13T09:05:56.892Z,241.17
2023-06-13T09:06:56.869Z,241.92
2023-06-13T09:08:05.123Z,243.51
2023-06-13T09:08:57.822Z,241.42
2023-06-13T09:09:56.823Z,242.85
2023-06-13T09:10:56.896Z,245.71
2023-06-13T09:11:56.835Z,250.21
2023-06-13T09:12:56.713Z,257.41
2023-06-13T09:13:56.703Z,250.64
2023-06-13T09:14:56.652Z,249.76
2023-06-13T09:15:56.626Z,249.72
2023-06-13T09:16:56.676Z,249.97
2023-06-13T09:18:56.605Z,249.76
2023-06-13T09:19:56.576Z,250.16
2023-06-13T09:20:56.577Z,250.00
2023-06-13T09:21:56.584Z,249.86
2023-06-13T09:22:56.576Z,244.72
2023-06-13T09:23:56.671Z,238.34
2023-06-13T09:24:56.586Z,238.20
2023-06-13T09:25:56.639Z,237.54
2023-06-13T09:26:56.587Z,237.64
2023-06-13T09:27:58.047Z,239.26
2023-06-13T09:28:56.607Z,239.69
2023-06-13T09:29:56.619Z,240.97
2023-06-13T09:30:56.681Z,242.61
2023-06-13T09:31:56.645Z,244.24
2023-06-13T09:32:56.701Z,246.46
2023-06-13T09:33:56.682Z,248.48
2023-06-13T09:34:56.691Z,248.96
2023-06-13T09:35:58.224Z,250.00
2023-06-13T09:36:56.712Z,249.29
2023-06-13T09:37:56.648Z,249.53
2023-06-13T09:38:56.629Z,249.70
2023-06-13T09:40:16.439Z,249.74
2023-06-13T09:40:57.577Z,249.87
2023-06-13T09:41:56.542Z,250.22
2023-06-13T09:43:05.042Z,250.65
2023-06-13T09:43:57.472Z,249.93
2023-06-13T09:44:58.982Z,251.41
2023-06-13T09:45:56.709Z,253.89
2023-06-13T09:46:56.856Z,258.33
2023-06-13T09:47:56.682Z,263.93
2023-06-13T09:48:56.664Z,256.58
2023-06-13T09:49:57.207Z,250.00
2023-06-13T09:50:56.667Z,250.00
2023-06-13T09:51:56.669Z,249.64
2023-06-13T09:52:56.689Z,249.92
2023-06-13T09:53:56.681Z,250.33
2023-06-13T09:54:56.699Z,249.15
2023-06-13T09:55:56.697Z,249.15
2023-06-13T09:56:56.700Z,249.91
2023-06-13T09:58:18.288Z,260.73
2023-06-13T09:58:57.684Z,260.82
2023-06-13T09:59:56.659Z,260.80
2023-06-13T10:00:56.634Z,260.83
2023-06-13T10:01:56.612Z,260.89
2023-06-13T10:02:59.713Z,259.75
2023-06-13T10:03:57.541Z,260.77
2023-06-13T10:04:56.572Z,260.77
2023-06-13T10:05:56.476Z,260.84
2023-06-13T10:06:56.505Z,259.90
2023-06-13T10:07:56.402Z,259.76
2023-06-13T10:08:56.396Z,253.59
2023-06-13T10:09:56.342Z,249.93
2023-06-13T10:10:56.320Z,249.44
2023-06-13T10:11:56.331Z,249.27
2023-06-13T10:12:57.000Z,248.62
2023-06-13T10:13:56.225Z,248.42
2023-06-13T10:14:56.163Z,247.87
2023-06-13T10:15:56.187Z,247.77
2023-06-13T10:17:07.701Z,247.40
2023-06-13T10:17:57.141Z,247.43
2023-06-13T10:18:56.071Z,247.01
2023-06-13T10:19:56.007Z,246.77
2023-06-13T10:20:55.964Z,245.65
2023-06-13T10:21:55.989Z,245.92
2023-06-13T10:22:55.905Z,245.30
2023-06-13T10:23:55.935Z,245.05
2023-06-13T10:24:55.860Z,245.30
2023-06-13T10:25:56.736Z,243.80
2023-06-13T10:26:55.781Z,244.08
2023-06-13T10:27:56.548Z,243.27
2023-06-13T10:28:55.766Z,243.38
2023-06-13T10:29:55.675Z,243.11
2023-06-13T10:30:55.700Z,242.76
2023-06-13T10:31:55.747Z,242.03
2023-06-13T10:32:55.741Z,242.11
2023-06-13T10:33:55.721Z,241.37
2023-06-13T10:34:55.814Z,241.04
2023-06-13T10:35:55.742Z,240.93
2023-06-13T10:36:58.347Z,241.12
2023-06-13T10:37:56.726Z,241.13
2023-06-13T10:38:56.527Z,240.66
2023-06-13T10:39:55.671Z,239.55
2023-06-13T10:40:55.637Z,239.65
2023-06-13T10:41:55.620Z,239.20
2023-06-13T10:42:55.607Z,238.63
2023-06-13T10:43:55.565Z,238.67
2023-06-13T10:44:55.534Z,237.59
2023-06-13T10:45:55.541Z,237.75
2023-06-13T10:46:55.484Z,237.62
2023-06-13T10:47:55.473Z,236.92
2023-06-13T10:48:55.472Z,236.86
2023-06-13T10:49:55.495Z,236.77
2023-06-13T10:50:55.521Z,235.95
2023-06-13T10:51:55.551Z,235.63
2023-06-13T10:52:55.564Z,235.08
2023-06-13T10:53:55.603Z,235.23
2023-06-13T10:54:55.632Z,234.57
2023-06-13T10:55:55.662Z,234.69
2023-06-13T10:56:55.669Z,233.76
2023-06-13T10:57:55.720Z,233.72
2023-06-13T10:58:55.732Z,232.67
2023-06-13T10:59:55.769Z,232.71
2023-06-13T11:00:55.819Z,232.28
2023-06-13T11:01:55.831Z,231.75
2023-06-13T11:02:55.989Z,231.18
2023-06-13T11:03:55.930Z,231.01
2023-06-13T11:04:55.952Z,230.59
2023-06-13T11:05:56.042Z,229.85
2023-06-13T11:06:56.006Z,229.67
2023-06-13T11:07:56.037Z,229.06
2023-06-13T11:08:56.087Z,229.06
2023-06-13T11:09:56.181Z,228.43
2023-06-13T11:10:56.148Z,228.18
2023-06-13T11:11:56.192Z,227.94
2023-06-13T11:12:56.211Z,228.24
2023-06-13T11:13:56.279Z,227.28
2023-06-13T11:15:56.354Z,227.73
2023-06-13T11:16:56.459Z,226.85
2023-06-13T11:17:56.486Z,226.19
2023-06-13T11:18:56.481Z,226.22
2023-06-13T11:19:56.489Z,226.32
2023-06-13T11:20:56.512Z,225.96
2023-06-13T11:21:56.606Z,225.38
2023-06-13T11:22:56.580Z,224.86
2023-06-13T11:23:56.699Z,224.48
2023-06-13T11:24:56.669Z,224.27
2023-06-13T11:25:56.771Z,224.13
2023-06-13T11:26:56.743Z,224.20
2023-06-13T11:27:56.822Z,224.19
2023-06-13T11:28:56.822Z,223.92
2023-06-13T11:29:56.872Z,223.17
2023-06-13T11:30:56.902Z,223.10
2023-06-13T11:31:57.004Z,223.06
2023-06-13T11:32:57.025Z,222.27
2023-06-13T11:33:57.023Z,222.32
2023-06-13T11:34:57.044Z,222.40
2023-06-13T11:35:57.082Z,222.74
2023-06-13T11:36:57.112Z,221.18
2023-06-13T11:37:58.031Z,221.36
2023-06-13T11:38:57.213Z,221.30
2023-06-13T11:40:17.829Z,220.98
2023-06-13T11:40:58.216Z,221.03
2023-06-13T11:41:57.178Z,221.08
2023-06-13T11:42:57.137Z,221.01
2023-06-13T11:43:57.171Z,220.37
2023-06-13T11:44:57.082Z,219.77
2023-06-13T11:45:57.058Z,220.05
2023-06-13T11:46:57.062Z,219.77
2023-06-13T11:47:57.106Z,219.65
2023-06-13T11:48:57.218Z,219.17
2023-06-13T11:49:57.463Z,218.50
2023-06-13T11:50:57.012Z,218.33
2023-06-13T11:51:57.052Z,218.30
2023-06-13T11:52:57.193Z,217.97
2023-06-13T11:53:57.133Z,217.80
2023-06-13T11:54:57.176Z,217.53
2023-06-13T11:55:57.282Z,217.61
2023-06-13T11:56:57.240Z,217.35
2023-06-13T11:57:57.276Z,216.96
2023-06-13T11:58:57.329Z,216.85
2023-06-13T11:59:57.370Z,216.60
2023-06-13T12:00:57.394Z,216.62
2023-06-13T12:01:57.478Z,216.37
2023-06-13T12:02:57.776Z,216.05
2023-06-13T12:03:57.686Z,215.52
2023-06-13T12:04:57.684Z,216.01
2023-06-13T12:05:57.586Z,215.02
2023-06-13T12:06:57.619Z,215.13
2023-06-13T12:07:57.728Z,214.62
2023-06-13T12:08:57.714Z,215.45
2023-06-13T12:09:57.732Z,214.99
2023-06-13T12:10:58.042Z,215.26
2023-06-13T12:11:57.813Z,215.70
2023-06-13T12:12:57.833Z,215.32
2023-06-13T12:13:57.870Z,215.02
2023-06-13T12:14:57.904Z,215.04
2023-06-13T12:15:57.939Z,214.48
2023-06-13T12:16:58.001Z,215.43
2023-06-13T12:17:58.578Z,214.19
2023-06-13T12:18:58.035Z,214.25
2023-06-13T12:19:58.123Z,214.04
2023-06-13T12:20:58.091Z,213.63
2023-06-13T12:21:58.170Z,214.20
2023-06-13T12:22:58.171Z,213.29
2023-06-13T12:23:58.270Z,213.64
2023-06-13T12:24:58.293Z,213.16
2023-06-13T12:25:58.272Z,212.82
2023-06-13T12:26:58.298Z,212.74
2023-06-13T12:27:58.322Z,212.61
2023-06-13T12:29:00.616Z,211.80
2023-06-13T12:29:58.358Z,212.83
2023-06-13T12:30:58.408Z,212.45
2023-06-13T12:31:58.303Z,211.62
2023-06-13T12:32:58.506Z,212.14
2023-06-13T12:33:58.222Z,211.76
2023-06-13T12:34:59.314Z,211.56
2023-06-13T12:35:58.194Z,211.59